VOZ7 YMML-YSCB
Flight info
| Callsign | VOZ7 |
|---|---|
| Flight time | 0h 45m |
| Altitude | 31000 |
| Route | ML H129 DOSEL Y59 ARRAN J42 CB |
| Aircraft | B738/M-SDE2E3FGHIRWXY/LB1 |
Departure
| Time | 2026-05-08 06:50 |
|---|---|
| Airport | Melbourne Airport (YMML) |
Arrival
| Time | 2026-05-08 07:35 |
|---|---|
| Airport | Canberra Airport (YSCB) |
| Time | Latitude | Longitude | Altitude | Speed | Heading |
|---|---|---|---|---|---|
| 2026-05-08 06:27 | -37.67076 | 144.84574 | 388 ft | 0 kts | 172° |
| 2026-05-08 06:39 | -37.67060 | 144.84571 | 388 ft | 4 kts | 173° |
| 2026-05-08 06:40 | -37.67033 | 144.84569 | 389 ft | 4 kts | 186° |
| 2026-05-08 06:40 | -37.67013 | 144.84577 | 389 ft | 4 kts | 251° |
| 2026-05-08 06:40 | -37.67013 | 144.84566 | 389 ft | 4 kts | 264° |
| 2026-05-08 06:40 | -37.67014 | 144.84559 | 389 ft | 1 kts | 266° |
| 2026-05-08 06:42 | -37.67014 | 144.84546 | 389 ft | 8 kts | 266° |
| 2026-05-08 06:43 | -37.67041 | 144.84427 | 387 ft | 17 kts | 248° |
| 2026-05-08 06:43 | -37.67059 | 144.84282 | 384 ft | 12 kts | 275° |
| 2026-05-08 06:43 | -37.66999 | 144.84231 | 385 ft | 11 kts | 353° |
| 2026-05-08 06:43 | -37.66914 | 144.84215 | 387 ft | 17 kts | 351° |
| 2026-05-08 06:44 | -37.66778 | 144.84190 | 392 ft | 14 kts | 351° |
| 2026-05-08 06:44 | -37.66700 | 144.84229 | 395 ft | 13 kts | 69° |
| 2026-05-08 06:44 | -37.66684 | 144.84348 | 396 ft | 17 kts | 81° |
| 2026-05-08 06:44 | -37.66663 | 144.84532 | 396 ft | 19 kts | 81° |
| 2026-05-08 06:45 | -37.66644 | 144.84693 | 400 ft | 18 kts | 81° |
| 2026-05-08 06:45 | -37.66572 | 144.84803 | 404 ft | 18 kts | 5° |
| 2026-05-08 06:45 | -37.66483 | 144.84779 | 407 ft | 11 kts | 351° |
| 2026-05-08 06:45 | -37.66428 | 144.84778 | 409 ft | 1 kts | 4° |
| 2026-05-08 06:46 | -37.66422 | 144.84779 | 406 ft | 1 kts | 4° |
| 2026-05-08 06:46 | -37.66417 | 144.84779 | 408 ft | 1 kts | 4° |
| 2026-05-08 06:46 | -37.66412 | 144.84780 | 409 ft | 1 kts | 4° |
| 2026-05-08 06:46 | -37.66392 | 144.84781 | 408 ft | 9 kts | 4° |
| 2026-05-08 06:47 | -37.66351 | 144.84785 | 408 ft | 0 kts | 4° |
| 2026-05-08 06:47 | -37.66350 | 144.84785 | 408 ft | 1 kts | 4° |
| 2026-05-08 06:47 | -37.66292 | 144.84790 | 412 ft | 14 kts | 4° |
| 2026-05-08 06:47 | -37.66224 | 144.84742 | 412 ft | 0 kts | 272° |
| 2026-05-08 06:48 | -37.66224 | 144.84741 | 412 ft | 0 kts | 272° |
| 2026-05-08 06:49 | -37.66217 | 144.84595 | 412 ft | 50 kts | 275° |
| 2026-05-08 06:49 | -37.66170 | 144.83825 | 412 ft | 123 kts | 274° |
| 2026-05-08 06:49 | -37.66087 | 144.82494 | 522 ft | 171 kts | 270° |
| 2026-05-08 06:50 | -37.66002 | 144.81048 | 1562 ft | 158 kts | 268° |
| 2026-05-08 06:50 | -37.65920 | 144.79704 | 2487 ft | 154 kts | 266° |
| 2026-05-08 06:50 | -37.65847 | 144.78290 | 2945 ft | 179 kts | 267° |
| 2026-05-08 06:50 | -37.65758 | 144.76589 | 3235 ft | 207 kts | 268° |
| 2026-05-08 06:51 | -37.65653 | 144.74692 | 3619 ft | 223 kts | 268° |
| 2026-05-08 06:51 | -37.65540 | 144.72673 | 4022 ft | 242 kts | 268° |
| 2026-05-08 06:51 | -37.65419 | 144.70505 | 4710 ft | 251 kts | 268° |
| 2026-05-08 06:51 | -37.65187 | 144.68293 | 5555 ft | 262 kts | 282° |
| 2026-05-08 06:52 | -37.64236 | 144.66255 | 6393 ft | 279 kts | 307° |
| 2026-05-08 06:52 | -37.62678 | 144.64704 | 7142 ft | 295 kts | 330° |
| 2026-05-08 06:52 | -37.60720 | 144.63843 | 8013 ft | 300 kts | 340° |
| 2026-05-08 06:52 | -37.58701 | 144.63098 | 8787 ft | 305 kts | 340° |
| 2026-05-08 06:53 | -37.56634 | 144.62411 | 9573 ft | 312 kts | 349° |
| 2026-05-08 06:53 | -37.54455 | 144.62627 | 10301 ft | 322 kts | 18° |
| 2026-05-08 06:53 | -37.52481 | 144.64087 | 10567 ft | 342 kts | 47° |
| 2026-05-08 06:53 | -37.50951 | 144.66486 | 10872 ft | 358 kts | 56° |
| 2026-05-08 06:54 | -37.50527 | 144.67214 | 11024 ft | 361 kts | 57° |
| 2026-05-08 06:54 | -37.49409 | 144.69153 | 11498 ft | 366 kts | 57° |
| 2026-05-08 06:54 | -37.47950 | 144.71649 | 12167 ft | 370 kts | 56° |
| 2026-05-08 06:54 | -37.46493 | 144.74317 | 12935 ft | 371 kts | 61° |
| 2026-05-08 06:55 | -37.45199 | 144.77077 | 13679 ft | 374 kts | 64° |
| 2026-05-08 06:55 | -37.43918 | 144.79957 | 14371 ft | 378 kts | 64° |
| 2026-05-08 06:55 | -37.42636 | 144.82863 | 15052 ft | 380 kts | 64° |
| 2026-05-08 06:55 | -37.41331 | 144.85792 | 15754 ft | 382 kts | 63° |
| 2026-05-08 06:56 | -37.40040 | 144.88657 | 16390 ft | 386 kts | 63° |
| 2026-05-08 06:56 | -37.38700 | 144.91600 | 17031 ft | 389 kts | 63° |
| 2026-05-08 06:56 | -37.37342 | 144.94565 | 17687 ft | 393 kts | 63° |
| 2026-05-08 06:56 | -37.35967 | 144.97554 | 18326 ft | 396 kts | 62° |
| 2026-05-08 06:57 | -37.34599 | 145.00520 | 18917 ft | 399 kts | 62° |
| 2026-05-08 06:57 | -37.33202 | 145.03544 | 19515 ft | 400 kts | 62° |
| 2026-05-08 06:57 | -37.31798 | 145.06579 | 20094 ft | 402 kts | 63° |
| 2026-05-08 06:57 | -37.30386 | 145.09630 | 20668 ft | 405 kts | 63° |
| 2026-05-08 06:58 | -37.28967 | 145.12694 | 21220 ft | 407 kts | 63° |
| 2026-05-08 06:58 | -37.27539 | 145.15776 | 21760 ft | 410 kts | 63° |
| 2026-05-08 06:58 | -37.26098 | 145.18883 | 22273 ft | 413 kts | 63° |
| 2026-05-08 06:58 | -37.24648 | 145.22004 | 22798 ft | 416 kts | 63° |
| 2026-05-08 06:59 | -37.23186 | 145.25151 | 23309 ft | 418 kts | 63° |
| 2026-05-08 06:59 | -37.21711 | 145.28321 | 23821 ft | 421 kts | 63° |
| 2026-05-08 06:59 | -37.20227 | 145.31508 | 24228 ft | 424 kts | 63° |
| 2026-05-08 06:59 | -37.18733 | 145.34714 | 24634 ft | 427 kts | 63° |
| 2026-05-08 07:00 | -37.17227 | 145.37942 | 25043 ft | 429 kts | 63° |
| 2026-05-08 07:00 | -37.15694 | 145.41120 | 25442 ft | 433 kts | 60° |
| 2026-05-08 07:00 | -37.13986 | 145.44249 | 25813 ft | 437 kts | 58° |
| 2026-05-08 07:00 | -37.12182 | 145.47359 | 26094 ft | 443 kts | 57° |
| 2026-05-08 07:01 | -37.10383 | 145.50399 | 26456 ft | 446 kts | 57° |
| 2026-05-08 07:01 | -37.08533 | 145.53524 | 26883 ft | 448 kts | 57° |
| 2026-05-08 07:01 | -37.06682 | 145.56672 | 27256 ft | 450 kts | 57° |
| 2026-05-08 07:01 | -37.04825 | 145.59857 | 27613 ft | 452 kts | 57° |
| 2026-05-08 07:02 | -37.02974 | 145.63050 | 28078 ft | 452 kts | 57° |
| 2026-05-08 07:02 | -37.01137 | 145.66227 | 28591 ft | 450 kts | 57° |
| 2026-05-08 07:02 | -36.99304 | 145.69401 | 29113 ft | 449 kts | 57° |
| 2026-05-08 07:02 | -36.97502 | 145.72523 | 29556 ft | 449 kts | 58° |
| 2026-05-08 07:03 | -36.95667 | 145.75701 | 29994 ft | 449 kts | 58° |
| 2026-05-08 07:03 | -36.93838 | 145.78863 | 30451 ft | 448 kts | 58° |
| 2026-05-08 07:03 | -36.92033 | 145.81982 | 30867 ft | 446 kts | 58° |
| 2026-05-08 07:03 | -36.90216 | 145.85118 | 31229 ft | 446 kts | 58° |
| 2026-05-08 07:04 | -36.86509 | 145.91513 | 31237 ft | 460 kts | 58° |
| 2026-05-08 07:04 | -36.82706 | 145.98058 | 31240 ft | 472 kts | 58° |
| 2026-05-08 07:05 | -36.78818 | 146.04731 | 31261 ft | 483 kts | 57° |
| 2026-05-08 07:05 | -36.74821 | 146.11577 | 31237 ft | 493 kts | 57° |
| 2026-05-08 07:06 | -36.70732 | 146.18564 | 31234 ft | 501 kts | 57° |
| 2026-05-08 07:06 | -36.66684 | 146.25464 | 31228 ft | 504 kts | 57° |
| 2026-05-08 07:07 | -36.62561 | 146.32477 | 31230 ft | 505 kts | 57° |
| 2026-05-08 07:07 | -36.58400 | 146.39545 | 31215 ft | 505 kts | 57° |
| 2026-05-08 07:08 | -36.54240 | 146.46597 | 31219 ft | 505 kts | 57° |
| 2026-05-08 07:08 | -36.50073 | 146.53646 | 31219 ft | 504 kts | 57° |
| 2026-05-08 07:09 | -36.45916 | 146.60664 | 31222 ft | 504 kts | 57° |
| 2026-05-08 07:09 | -36.41785 | 146.67624 | 31218 ft | 504 kts | 57° |
| 2026-05-08 07:10 | -36.37623 | 146.74623 | 31203 ft | 504 kts | 56° |
| 2026-05-08 07:10 | -36.33451 | 146.81623 | 31214 ft | 503 kts | 56° |
| 2026-05-08 07:11 | -36.29298 | 146.88579 | 31219 ft | 504 kts | 56° |
| 2026-05-08 07:11 | -36.25137 | 146.95533 | 31208 ft | 505 kts | 56° |
| 2026-05-08 07:12 | -36.23027 | 146.99054 | 31213 ft | 505 kts | 56° |
| 2026-05-08 07:12 | -36.18838 | 147.06036 | 31202 ft | 505 kts | 56° |
| 2026-05-08 07:13 | -36.14640 | 147.13012 | 31221 ft | 505 kts | 56° |
| 2026-05-08 07:13 | -36.10439 | 147.19979 | 31208 ft | 505 kts | 56° |
| 2026-05-08 07:14 | -36.06244 | 147.26924 | 31109 ft | 497 kts | 56° |
| 2026-05-08 07:14 | -36.04185 | 147.30326 | 30580 ft | 491 kts | 56° |
| 2026-05-08 07:14 | -36.02150 | 147.33686 | 30079 ft | 486 kts | 55° |
| 2026-05-08 07:15 | -36.00132 | 147.37017 | 29508 ft | 481 kts | 55° |
| 2026-05-08 07:15 | -35.98139 | 147.40304 | 28998 ft | 475 kts | 55° |
| 2026-05-08 07:15 | -35.96168 | 147.43550 | 28475 ft | 470 kts | 55° |
| 2026-05-08 07:15 | -35.94217 | 147.46763 | 27973 ft | 465 kts | 55° |
| 2026-05-08 07:16 | -35.92309 | 147.49902 | 27471 ft | 461 kts | 55° |
| 2026-05-08 07:16 | -35.90389 | 147.53058 | 26969 ft | 457 kts | 55° |
| 2026-05-08 07:16 | -35.88487 | 147.56182 | 26482 ft | 453 kts | 55° |
| 2026-05-08 07:16 | -35.86602 | 147.59273 | 25991 ft | 449 kts | 55° |
| 2026-05-08 07:17 | -35.84763 | 147.62360 | 25514 ft | 444 kts | 60° |
| 2026-05-08 07:17 | -35.83538 | 147.65780 | 25054 ft | 432 kts | 80° |
| 2026-05-08 07:17 | -35.83057 | 147.69387 | 24652 ft | 423 kts | 87° |
| 2026-05-08 07:17 | -35.82714 | 147.72975 | 24175 ft | 421 kts | 87° |
| 2026-05-08 07:18 | -35.82389 | 147.76562 | 23665 ft | 419 kts | 87° |
| 2026-05-08 07:18 | -35.82062 | 147.80114 | 23138 ft | 416 kts | 87° |
| 2026-05-08 07:18 | -35.81725 | 147.83650 | 22632 ft | 413 kts | 86° |
| 2026-05-08 07:18 | -35.81380 | 147.87150 | 22155 ft | 410 kts | 86° |
| 2026-05-08 07:19 | -35.81034 | 147.90573 | 21696 ft | 406 kts | 86° |
| 2026-05-08 07:19 | -35.80682 | 147.94012 | 21243 ft | 403 kts | 86° |
| 2026-05-08 07:19 | -35.80329 | 147.97429 | 20786 ft | 400 kts | 86° |
| 2026-05-08 07:19 | -35.79977 | 148.00821 | 20323 ft | 397 kts | 86° |
| 2026-05-08 07:20 | -35.79626 | 148.04190 | 19884 ft | 395 kts | 86° |
| 2026-05-08 07:20 | -35.79277 | 148.07540 | 19415 ft | 393 kts | 86° |
| 2026-05-08 07:20 | -35.78928 | 148.10870 | 18974 ft | 391 kts | 85° |
| 2026-05-08 07:20 | -35.78581 | 148.14178 | 18529 ft | 388 kts | 85° |
| 2026-05-08 07:21 | -35.78235 | 148.17475 | 18008 ft | 387 kts | 85° |
| 2026-05-08 07:21 | -35.77889 | 148.20751 | 17547 ft | 384 kts | 85° |
| 2026-05-08 07:21 | -35.77546 | 148.24000 | 17087 ft | 382 kts | 85° |
| 2026-05-08 07:21 | -35.77203 | 148.27230 | 16635 ft | 379 kts | 85° |
| 2026-05-08 07:22 | -35.76867 | 148.30397 | 16197 ft | 377 kts | 85° |
| 2026-05-08 07:22 | -35.76526 | 148.33590 | 15739 ft | 374 kts | 86° |
| 2026-05-08 07:22 | -35.76188 | 148.36752 | 15319 ft | 372 kts | 86° |
| 2026-05-08 07:22 | -35.75852 | 148.39904 | 14901 ft | 370 kts | 86° |
| 2026-05-08 07:23 | -35.75514 | 148.43045 | 14436 ft | 370 kts | 86° |
| 2026-05-08 07:23 | -35.75176 | 148.46185 | 13990 ft | 368 kts | 86° |
| 2026-05-08 07:23 | -35.74843 | 148.49306 | 13529 ft | 366 kts | 86° |
| 2026-05-08 07:23 | -35.74507 | 148.52400 | 13081 ft | 364 kts | 86° |
| 2026-05-08 07:24 | -35.74173 | 148.55474 | 12643 ft | 361 kts | 86° |
| 2026-05-08 07:24 | -35.73840 | 148.58531 | 12187 ft | 359 kts | 87° |
| 2026-05-08 07:24 | -35.73356 | 148.61551 | 11727 ft | 361 kts | 77° |
| 2026-05-08 07:24 | -35.72526 | 148.64468 | 11330 ft | 361 kts | 73° |
| 2026-05-08 07:25 | -35.71604 | 148.67339 | 11036 ft | 355 kts | 73° |
| 2026-05-08 07:25 | -35.70719 | 148.70085 | 10858 ft | 346 kts | 73° |
| 2026-05-08 07:25 | -35.69058 | 148.75492 | 10539 ft | 328 kts | 75° |
| 2026-05-08 07:26 | -35.68278 | 148.78104 | 10400 ft | 320 kts | 76° |
| 2026-05-08 07:26 | -35.67515 | 148.80670 | 10168 ft | 316 kts | 76° |
| 2026-05-08 07:26 | -35.66766 | 148.83194 | 9948 ft | 310 kts | 76° |
| 2026-05-08 07:26 | -35.66034 | 148.85653 | 9683 ft | 308 kts | 76° |
| 2026-05-08 07:27 | -35.65308 | 148.88096 | 9278 ft | 305 kts | 76° |
| 2026-05-08 07:27 | -35.64580 | 148.90527 | 8965 ft | 301 kts | 76° |
| 2026-05-08 07:27 | -35.63865 | 148.92930 | 8662 ft | 298 kts | 75° |
| 2026-05-08 07:27 | -35.63155 | 148.95290 | 8392 ft | 288 kts | 75° |
| 2026-05-08 07:28 | -35.62467 | 148.97577 | 8121 ft | 284 kts | 75° |
| 2026-05-08 07:28 | -35.61788 | 148.99850 | 7823 ft | 282 kts | 75° |
| 2026-05-08 07:28 | -35.61115 | 149.02092 | 7539 ft | 279 kts | 75° |
| 2026-05-08 07:28 | -35.60448 | 149.04315 | 7313 ft | 276 kts | 75° |
| 2026-05-08 07:29 | -35.59782 | 149.06541 | 7021 ft | 277 kts | 74° |
| 2026-05-08 07:29 | -35.59091 | 149.08711 | 6861 ft | 273 kts | 74° |
| 2026-05-08 07:29 | -35.58396 | 149.10863 | 6735 ft | 269 kts | 74° |
| 2026-05-08 07:29 | -35.57709 | 149.12995 | 6627 ft | 268 kts | 74° |
| 2026-05-08 07:30 | -35.57029 | 149.15110 | 6538 ft | 262 kts | 73° |
| 2026-05-08 07:30 | -35.56287 | 149.17114 | 6337 ft | 258 kts | 57° |
| 2026-05-08 07:30 | -35.54914 | 149.18495 | 6105 ft | 253 kts | 26° |
| 2026-05-08 07:30 | -35.53316 | 149.19316 | 5864 ft | 246 kts | 13° |
| 2026-05-08 07:31 | -35.51657 | 149.19525 | 5661 ft | 234 kts | 356° |
| 2026-05-08 07:31 | -35.50083 | 149.19483 | 5535 ft | 222 kts | 355° |
| 2026-05-08 07:31 | -35.48548 | 149.19451 | 5273 ft | 217 kts | 356° |
| 2026-05-08 07:31 | -35.47084 | 149.19448 | 4993 ft | 207 kts | 357° |
| 2026-05-08 07:32 | -35.45677 | 149.19447 | 4688 ft | 197 kts | 356° |
| 2026-05-08 07:32 | -35.44341 | 149.19446 | 4422 ft | 189 kts | 358° |
| 2026-05-08 07:32 | -35.43034 | 149.19446 | 4192 ft | 186 kts | 358° |
| 2026-05-08 07:32 | -35.41755 | 149.19446 | 3933 ft | 181 kts | 356° |
| 2026-05-08 07:33 | -35.40503 | 149.19445 | 3708 ft | 180 kts | 357° |
| 2026-05-08 07:33 | -35.39674 | 149.19446 | 3542 ft | 180 kts | 356° |
| 2026-05-08 07:33 | -35.38039 | 149.19446 | 3218 ft | 168 kts | 357° |
| 2026-05-08 07:33 | -35.37283 | 149.19447 | 3052 ft | 157 kts | 355° |
| 2026-05-08 07:34 | -35.35858 | 149.19445 | 2771 ft | 150 kts | 355° |
| 2026-05-08 07:34 | -35.35168 | 149.19441 | 2634 ft | 152 kts | 355° |
| 2026-05-08 07:34 | -35.34129 | 149.19442 | 2419 ft | 145 kts | 354° |
| 2026-05-08 07:34 | -35.32788 | 149.19444 | 2168 ft | 150 kts | 354° |
| 2026-05-08 07:35 | -35.31783 | 149.19446 | 1978 ft | 142 kts | 355° |
| 2026-05-08 07:35 | -35.31106 | 149.19453 | 1883 ft | 142 kts | 358° |
| 2026-05-08 07:35 | -35.30241 | 149.19439 | 1879 ft | 98 kts | 359° |
| 2026-05-08 07:35 | -35.29766 | 149.19443 | 1878 ft | 47 kts | 359° |
| 2026-05-08 07:36 | -35.29586 | 149.19407 | 1878 ft | 12 kts | 295° |
| 2026-05-08 07:36 | -35.29581 | 149.19312 | 1878 ft | 10 kts | 272° |
| 2026-05-08 07:36 | -35.29613 | 149.19247 | 1877 ft | 9 kts | 205° |
| 2026-05-08 07:36 | -35.29684 | 149.19243 | 1878 ft | 14 kts | 179° |
| 2026-05-08 07:37 | -35.29784 | 149.19243 | 1878 ft | 14 kts | 181° |
| 2026-05-08 07:37 | -35.29880 | 149.19240 | 1877 ft | 14 kts | 179° |
| 2026-05-08 07:37 | -35.29977 | 149.19243 | 1876 ft | 15 kts | 179° |
| 2026-05-08 07:37 | -35.30097 | 149.19243 | 1878 ft | 21 kts | 179° |
| 2026-05-08 07:38 | -35.30244 | 149.19239 | 1878 ft | 22 kts | 181° |
| 2026-05-08 07:38 | -35.30393 | 149.19237 | 1876 ft | 21 kts | 181° |
| 2026-05-08 07:39 | -35.30539 | 149.19239 | 1877 ft | 21 kts | 179° |
| 2026-05-08 07:39 | -35.30682 | 149.19239 | 1876 ft | 20 kts | 179° |
| 2026-05-08 07:39 | -35.30805 | 149.19239 | 1879 ft | 17 kts | 180° |
| 2026-05-08 07:39 | -35.30879 | 149.19239 | 1879 ft | 9 kts | 180° |
| 2026-05-08 07:40 | -35.30935 | 149.19234 | 1875 ft | 6 kts | 211° |
| 2026-05-08 07:40 | -35.30927 | 149.19187 | 1879 ft | 6 kts | 302° |
| 2026-05-08 07:40 | -35.30922 | 149.19136 | 1879 ft | 2 kts | 271° |
| 2026-05-08 07:40 | -35.30922 | 149.19122 | 1879 ft | 0 kts | 270° |